sensor_id;sensor_type;location;lat;lon;timestamp;pressure;altitude;pressure_sealevel;temperature;humidity
68226;BME280;55045;49.410;11.030;2022-10-16T00:01:56;98031.97;;;13.86;100.00
68226;BME280;55045;49.410;11.030;2022-10-16T00:04:59;98015.78;;;13.81;100.00
68226;BME280;55045;49.410;11.030;2022-10-16T00:08:03;98022.69;;;13.82;100.00
68226;BME280;55045;49.410;11.030;2022-10-16T00:11:09;98034.88;;;13.81;100.00
68226;BME280;55045;49.410;11.030;2022-10-16T00:14:27;98041.28;;;13.76;100.00
68226;BME280;55045;49.410;11.030;2022-10-16T00:17:39;98036.97;;;13.89;100.00
68226;BME280;55045;49.410;11.030;2022-10-16T00:20:42;98054.06;;;13.80;100.00
68226;BME280;55045;49.410;11.030;2022-10-16T00:24:06;98050.06;;;13.75;95.65
68226;BME280;55045;49.410;11.030;2022-10-16T00:27:10;98055.91;;;13.78;96.86
68226;BME280;55045;49.410;11.030;2022-10-16T00:30:15;98057.34;;;13.70;92.78
68226;BME280;55045;49.410;11.030;2022-10-16T00:33:18;98055.63;;;13.69;90.13
68226;BME280;55045;49.410;11.030;2022-10-16T00:36:24;98051.56;;;13.65;85.01
68226;BME280;55045;49.410;11.030;2022-10-16T00:39:28;98073.72;;;13.72;81.68
68226;BME280;55045;49.410;11.030;2022-10-16T00:42:37;98059.00;;;13.71;78.62
68226;BME280;55045;49.410;11.030;2022-10-16T00:45:42;98058.53;;;13.64;74.87
68226;BME280;55045;49.410;11.030;2022-10-16T00:48:51;98052.47;;;13.64;71.15
68226;BME280;55045;49.410;11.030;2022-10-16T00:51:55;98061.97;;;13.65;67.08
68226;BME280;55045;49.410;11.030;2022-10-16T00:55:00;98053.22;;;13.66;61.10
68226;BME280;55045;49.410;11.030;2022-10-16T00:58:12;98057.78;;;13.62;59.08
68226;BME280;55045;49.410;11.030;2022-10-16T01:01:59;98055.28;;;13.61;58.24
68226;BME280;55045;49.410;11.030;2022-10-16T01:05:07;98063.75;;;13.64;56.86
68226;BME280;55045;49.410;11.030;2022-10-16T01:08:13;98053.81;;;13.42;49.58
68226;BME280;55045;49.410;11.030;2022-10-16T01:11:24;98063.28;;;13.58;43.22
68226;BME280;55045;49.410;11.030;2022-10-16T01:14:36;98074.47;;;13.60;42.91
68226;BME280;55045;49.410;11.030;2022-10-16T01:17:46;98067.47;;;13.60;41.70
68226;BME280;55045;49.410;11.030;2022-10-16T01:20:55;98078.75;;;13.61;41.01
68226;BME280;55045;49.410;11.030;2022-10-16T01:24:07;98076.13;;;13.61;38.15
68226;BME280;55045;49.410;11.030;2022-10-16T01:27:16;98042.91;;;13.36;34.82
68226;BME280;55045;49.410;11.030;2022-10-16T01:30:25;98050.91;;;13.47;31.78
68226;BME280;55045;49.410;11.030;2022-10-16T01:33:45;98056.94;;;13.47;30.21
68226;BME280;55045;49.410;11.030;2022-10-16T01:37:04;98064.94;;;13.59;33.41
68226;BME280;55045;49.410;11.030;2022-10-16T01:40:11;98082.66;;;13.53;33.97
68226;BME280;55045;49.410;11.030;2022-10-16T01:43:19;98086.72;;;13.58;33.45
68226;BME280;55045;49.410;11.030;2022-10-16T01:46:24;98088.50;;;13.57;35.83
68226;BME280;55045;49.410;11.030;2022-10-16T01:49:31;98086.81;;;13.56;36.86
68226;BME280;55045;49.410;11.030;2022-10-16T01:52:39;98066.16;;;13.53;36.03
68226;BME280;55045;49.410;11.030;2022-10-16T01:55:46;98089.34;;;13.58;38.49
68226;BME280;55045;49.410;11.030;2022-10-16T01:58:55;98083.78;;;13.49;39.26
68226;BME280;55045;49.410;11.030;2022-10-16T02:02:07;98077.78;;;13.47;39.49
68226;BME280;55045;49.410;11.030;2022-10-16T02:05:32;98108.25;;;13.61;40.23
68226;BME280;55045;49.410;11.030;2022-10-16T02:08:37;98105.63;;;13.61;40.55
68226;BME280;55045;49.410;11.030;2022-10-16T02:11:51;98091.28;;;13.54;43.61
68226;BME280;55045;49.410;11.030;2022-10-16T02:15:27;98093.88;;;13.68;48.17
68226;BME280;55045;49.410;11.030;2022-10-16T02:18:32;98102.53;;;13.69;51.80
68226;BME280;55045;49.410;11.030;2022-10-16T02:21:41;98087.50;;;13.60;54.11
68226;BME280;55045;49.410;11.030;2022-10-16T02:25:09;98093.97;;;13.67;55.32
68226;BME280;55045;49.410;11.030;2022-10-16T02:28:24;98084.88;;;13.60;58.26
68226;BME280;55045;49.410;11.030;2022-10-16T02:31:46;98087.94;;;13.66;59.52
68226;BME280;55045;49.410;11.030;2022-10-16T02:34:53;98083.56;;;13.67;60.33
68226;BME280;55045;49.410;11.030;2022-10-16T02:37:57;98094.81;;;13.67;62.62
68226;BME280;55045;49.410;11.030;2022-10-16T02:41:03;98099.28;;;13.65;63.52
68226;BME280;55045;49.410;11.030;2022-10-16T02:44:07;98083.75;;;13.64;61.87
68226;BME280;55045;49.410;11.030;2022-10-16T02:47:11;98088.34;;;13.60;60.27
68226;BME280;55045;49.410;11.030;2022-10-16T02:50:15;98090.63;;;13.65;60.14
68226;BME280;55045;49.410;11.030;2022-10-16T02:53:19;98094.91;;;13.66;63.86
68226;BME280;55045;49.410;11.030;2022-10-16T02:56:22;98083.56;;;13.52;59.90
68226;BME280;55045;49.410;11.030;2022-10-16T02:59:25;98061.41;;;13.45;55.72
68226;BME280;55045;49.410;11.030;2022-10-16T03:02:31;98087.66;;;13.57;49.79
68226;BME280;55045;49.410;11.030;2022-10-16T03:05:34;98066.09;;;13.40;44.51
68226;BME280;55045;49.410;11.030;2022-10-16T03:08:37;98088.34;;;13.60;42.19
68226;BME280;55045;49.410;11.030;2022-10-16T03:11:41;98091.50;;;13.51;41.91
68226;BME280;55045;49.410;11.030;2022-10-16T03:14:44;98096.88;;;13.48;37.50
68226;BME280;55045;49.410;11.030;2022-10-16T03:17:48;98095.28;;;13.45;33.71
68226;BME280;55045;49.410;11.030;2022-10-16T03:20:52;98102.56;;;13.40;33.14
68226;BME280;55045;49.410;11.030;2022-10-16T03:23:55;98106.00;;;13.41;34.42
68226;BME280;55045;49.410;11.030;2022-10-16T03:26:59;98104.63;;;13.49;48.05
68226;BME280;55045;49.410;11.030;2022-10-16T03:30:03;98100.69;;;13.42;58.95
68226;BME280;55045;49.410;11.030;2022-10-16T03:34:27;98092.88;;;13.42;58.96
68226;BME280;55045;49.410;11.030;2022-10-16T03:37:31;98096.97;;;13.46;59.08
68226;BME280;55045;49.410;11.030;2022-10-16T03:40:34;98085.59;;;13.33;58.23
68226;BME280;55045;49.410;11.030;2022-10-16T03:43:38;98104.03;;;13.44;58.32
68226;BME280;55045;49.410;11.030;2022-10-16T03:46:41;98105.50;;;13.48;57.18
68226;BME280;55045;49.410;11.030;2022-10-16T03:49:46;98100.50;;;13.45;55.68
68226;BME280;55045;49.410;11.030;2022-10-16T03:52:49;98051.88;;;13.16;55.57
68226;BME280;55045;49.410;11.030;2022-10-16T03:55:52;98115.78;;;13.51;52.87
68226;BME280;55045;49.410;11.030;2022-10-16T03:58:56;98111.75;;;13.46;52.43
68226;BME280;55045;49.410;11.030;2022-10-16T04:01:59;98123.59;;;13.51;51.91
68226;BME280;55045;49.410;11.030;2022-10-16T04:05:04;98110.72;;;13.48;51.18
68226;BME280;55045;49.410;11.030;2022-10-16T04:08:08;98116.50;;;13.53;50.91
68226;BME280;55045;49.410;11.030;2022-10-16T04:11:11;98126.00;;;13.54;50.94
68226;BME280;55045;49.410;11.030;2022-10-16T04:14:15;98129.34;;;13.57;51.30
68226;BME280;55045;49.410;11.030;2022-10-16T04:17:18;98131.84;;;13.58;52.28
68226;BME280;55045;49.410;11.030;2022-10-16T04:20:23;98133.56;;;13.59;52.42
68226;BME280;55045;49.410;11.030;2022-10-16T04:23:26;98127.41;;;13.60;53.35
68226;BME280;55045;49.410;11.030;2022-10-16T04:26:29;98132.69;;;13.59;52.73
68226;BME280;55045;49.410;11.030;2022-10-16T04:29:32;98128.72;;;13.53;52.70
68226;BME280;55045;49.410;11.030;2022-10-16T04:32:36;98118.38;;;13.51;52.62
68226;BME280;55045;49.410;11.030;2022-10-16T04:35:40;98129.34;;;13.57;52.03
68226;BME280;55045;49.410;11.030;2022-10-16T04:38:44;98131.31;;;13.53;50.56
68226;BME280;55045;49.410;11.030;2022-10-16T04:41:47;98128.72;;;13.53;50.71
68226;BME280;55045;49.410;11.030;2022-10-16T04:44:51;98115.38;;;13.43;50.31
68226;BME280;55045;49.410;11.030;2022-10-16T04:47:56;98133.09;;;13.52;50.61
68226;BME280;55045;49.410;11.030;2022-10-16T04:51:01;98121.00;;;13.51;50.09
68226;BME280;55045;49.410;11.030;2022-10-16T04:54:04;98129.44;;;13.41;50.78
68226;BME280;55045;49.410;11.030;2022-10-16T04:57:08;98136.03;;;13.46;55.86
68226;BME280;55045;49.410;11.030;2022-10-16T05:00:12;98121.16;;;13.34;56.68
68226;BME280;55045;49.410;11.030;2022-10-16T05:03:15;98137.16;;;13.42;57.77
68226;BME280;55045;49.410;11.030;2022-10-16T05:06:20;98143.84;;;13.46;57.76
68226;BME280;55045;49.410;11.030;2022-10-16T05:09:24;98142.56;;;13.39;58.09
68226;BME280;55045;49.410;11.030;2022-10-16T05:12:27;98140.78;;;13.40;58.16
68226;BME280;55045;49.410;11.030;2022-10-16T05:15:30;98142.72;;;13.36;58.34
68226;BME280;55045;49.410;11.030;2022-10-16T05:18:33;98150.63;;;13.35;58.95
68226;BME280;55045;49.410;11.030;2022-10-16T05:21:38;98150.00;;;13.31;58.78
68226;BME280;55045;49.410;11.030;2022-10-16T05:24:41;98140.28;;;13.19;58.96
68226;BME280;55045;49.410;11.030;2022-10-16T05:27:47;98154.06;;;13.21;59.62
68226;BME280;55045;49.410;11.030;2022-10-16T05:30:50;98148.84;;;13.21;60.05
68226;BME280;55045;49.410;11.030;2022-10-16T05:33:58;98153.88;;;13.24;59.69
68226;BME280;55045;49.410;11.030;2022-10-16T05:37:03;98167.47;;;13.29;60.11
68226;BME280;55045;49.410;11.030;2022-10-16T05:40:07;98129.44;;;13.11;58.28
68226;BME280;55045;49.410;11.030;2022-10-16T05:43:10;98178.25;;;13.37;56.65
68226;BME280;55045;49.410;11.030;2022-10-16T05:46:14;98189.47;;;13.39;54.70
68226;BME280;55045;49.410;11.030;2022-10-16T05:49:18;98187.59;;;13.41;54.51
68226;BME280;55045;49.410;11.030;2022-10-16T05:52:23;98198.63;;;13.31;52.76
68226;BME280;55045;49.410;11.030;2022-10-16T05:55:26;98200.78;;;13.38;53.20
68226;BME280;55045;49.410;11.030;2022-10-16T05:58:31;98199.88;;;13.39;53.11
68226;BME280;55045;49.410;11.030;2022-10-16T06:01:34;98193.63;;;13.42;52.99
68226;BME280;55045;49.410;11.030;2022-10-16T06:04:38;98169.81;;;13.18;55.66
68226;BME280;55045;49.410;11.030;2022-10-16T06:07:42;98175.19;;;13.31;56.51
68226;BME280;55045;49.410;11.030;2022-10-16T06:10:46;98190.25;;;13.25;58.44
68226;BME280;55045;49.410;11.030;2022-10-16T06:13:51;98206.66;;;13.42;57.02
68226;BME280;55045;49.410;11.030;2022-10-16T06:16:55;98202.50;;;13.53;55.92
68226;BME280;55045;49.410;11.030;2022-10-16T06:19:59;98204.63;;;13.47;52.86
68226;BME280;55045;49.410;11.030;2022-10-16T06:23:03;98212.44;;;13.47;52.83
68226;BME280;55045;49.410;11.030;2022-10-16T06:26:07;97924.06;;;11.72;51.20
68226;BME280;55045;49.410;11.030;2022-10-16T06:29:11;98197.41;;;13.66;51.29
68226;BME280;55045;49.410;11.030;2022-10-16T06:32:14;98208.13;;;13.76;54.94
68226;BME280;55045;49.410;11.030;2022-10-16T06:35:18;98186.50;;;13.88;61.48
68226;BME280;55045;49.410;11.030;2022-10-16T06:38:22;98211.75;;;13.73;63.21
68226;BME280;55045;49.410;11.030;2022-10-16T06:41:26;98218.84;;;13.86;63.59
68226;BME280;55045;49.410;11.030;2022-10-16T06:44:29;98223.41;;;13.82;64.22
68226;BME280;55045;49.410;11.030;2022-10-16T06:47:32;98221.63;;;13.97;75.48
68226;BME280;55045;49.410;11.030;2022-10-16T06:50:35;98209.53;;;13.96;81.72
68226;BME280;55045;49.410;11.030;2022-10-16T06:53:42;98210.38;;;14.25;86.69
68226;BME280;55045;49.410;11.030;2022-10-16T06:57:03;98200.97;;;13.94;87.61
68226;BME280;55045;49.410;11.030;2022-10-16T07:00:07;98214.09;;;13.92;92.40
68226;BME280;55045;49.410;11.030;2022-10-16T07:03:10;98235.69;;;13.94;92.75
68226;BME280;55045;49.410;11.030;2022-10-16T07:06:16;98241.41;;;14.01;96.81
68226;BME280;55045;49.410;11.030;2022-10-16T07:09:21;98242.97;;;14.03;97.43
68226;BME280;55045;49.410;11.030;2022-10-16T07:12:24;98249.97;;;14.03;99.53
68226;BME280;55045;49.410;11.030;2022-10-16T07:15:28;98240.63;;;13.99;99.68
68226;BME280;55045;49.410;11.030;2022-10-16T07:18:31;98264.75;;;14.17;100.00
68226;BME280;55045;49.410;11.030;2022-10-16T07:21:34;98246.91;;;14.10;100.00
68226;BME280;55045;49.410;11.030;2022-10-16T07:24:39;98251.00;;;14.00;100.00
68226;BME280;55045;49.410;11.030;2022-10-16T07:27:43;98268.22;;;14.03;100.00
68226;BME280;55045;49.410;11.030;2022-10-16T07:30:46;98270.63;;;14.06;100.00
68226;BME280;55045;49.410;11.030;2022-10-16T07:33:50;98272.31;;;14.07;100.00
68226;BME280;55045;49.410;11.030;2022-10-16T07:36:53;98277.34;;;14.10;100.00
68226;BME280;55045;49.410;11.030;2022-10-16T07:39:58;98293.66;;;14.13;100.00
68226;BME280;55045;49.410;11.030;2022-10-16T07:43:01;98295.53;;;14.26;100.00
68226;BME280;55045;49.410;11.030;2022-10-16T07:46:07;98275.50;;;14.12;100.00
68226;BME280;55045;49.410;11.030;2022-10-16T07:49:10;98225.34;;;13.78;100.00
68226;BME280;55045;49.410;11.030;2022-10-16T07:52:14;98283.69;;;14.34;100.00
68226;BME280;55045;49.410;11.030;2022-10-16T07:55:38;98246.06;;;14.10;100.00
68226;BME280;55045;49.410;11.030;2022-10-16T07:58:42;98275.56;;;14.39;100.00
68226;BME280;55045;49.410;11.030;2022-10-16T08:01:45;98283.94;;;14.30;100.00
68226;BME280;55045;49.410;11.030;2022-10-16T08:04:48;98291.91;;;14.43;100.00
68226;BME280;55045;49.410;11.030;2022-10-16T08:07:52;98293.94;;;14.37;100.00
68226;BME280;55045;49.410;11.030;2022-10-16T08:10:56;98243.63;;;14.07;100.00
68226;BME280;55045;49.410;11.030;2022-10-16T08:14:00;98306.56;;;14.45;100.00
68226;BME280;55045;49.410;11.030;2022-10-16T08:17:03;98299.84;;;14.55;100.00
68226;BME280;55045;49.410;11.030;2022-10-16T08:20:09;98301.72;;;14.53;100.00
68226;BME280;55045;49.410;11.030;2022-10-16T08:23:13;98294.97;;;14.49;100.00
68226;BME280;55045;49.410;11.030;2022-10-16T08:26:18;98301.22;;;14.61;100.00
68226;BME280;55045;49.410;11.030;2022-10-16T08:29:22;98275.03;;;14.48;100.00
68226;BME280;55045;49.410;11.030;2022-10-16T08:32:25;98301.13;;;14.77;100.00
68226;BME280;55045;49.410;11.030;2022-10-16T08:35:29;98302.22;;;14.87;100.00
68226;BME280;55045;49.410;11.030;2022-10-16T08:38:32;98303.69;;;14.91;100.00
68226;BME280;55045;49.410;11.030;2022-10-16T08:45:32;98295.63;;;15.22;100.00
68226;BME280;55045;49.410;11.030;2022-10-16T08:48:44;98299.34;;;15.45;100.00
68226;BME280;55045;49.410;11.030;2022-10-16T08:51:48;98252.97;;;14.95;100.00
68226;BME280;55045;49.410;11.030;2022-10-16T08:54:55;98303.28;;;15.38;100.00
68226;BME280;55045;49.410;11.030;2022-10-16T08:57:59;98280.13;;;15.46;100.00
68226;BME280;55045;49.410;11.030;2022-10-16T09:01:11;98284.50;;;15.46;100.00
68226;BME280;55045;49.410;11.030;2022-10-16T09:08:03;98282.19;;;15.68;100.00
68226;BME280;55045;49.410;11.030;2022-10-16T09:11:17;98285.94;;;15.64;100.00
68226;BME280;55045;49.410;11.030;2022-10-16T09:14:36;98285.41;;;15.72;100.00
68226;BME280;55045;49.410;11.030;2022-10-16T09:17:52;98294.44;;;15.93;100.00
68226;BME280;55045;49.410;11.030;2022-10-16T09:21:03;98299.59;;;16.07;100.00
68226;BME280;55045;49.410;11.030;2022-10-16T09:24:12;98273.22;;;15.98;100.00
68226;BME280;55045;49.410;11.030;2022-10-16T09:27:16;98306.84;;;16.17;100.00
68226;BME280;55045;49.410;11.030;2022-10-16T09:34:30;98309.41;;;16.04;100.00
68226;BME280;55045;49.410;11.030;2022-10-16T09:37:33;98314.41;;;15.81;100.00
68226;BME280;55045;49.410;11.030;2022-10-16T09:40:39;98322.59;;;15.77;100.00
68226;BME280;55045;49.410;11.030;2022-10-16T09:43:48;98317.47;;;15.88;100.00
68226;BME280;55045;49.410;11.030;2022-10-16T09:47:01;98314.31;;;15.83;100.00
68226;BME280;55045;49.410;11.030;2022-10-16T09:50:22;98299.28;;;15.87;100.00
68226;BME280;55045;49.410;11.030;2022-10-16T09:53:38;98304.28;;;15.90;100.00
68226;BME280;55045;49.410;11.030;2022-10-16T09:56:42;98327.06;;;15.75;100.00
68226;BME280;55045;49.410;11.030;2022-10-16T09:59:48;98335.78;;;15.88;100.00
68226;BME280;55045;49.410;11.030;2022-10-16T10:02:52;98318.97;;;16.18;100.00
68226;BME280;55045;49.410;11.030;2022-10-16T10:05:58;98326.72;;;16.19;100.00
68226;BME280;55045;49.410;11.030;2022-10-16T10:09:15;98311.53;;;16.50;100.00
68226;BME280;55045;49.410;11.030;2022-10-16T10:12:21;98303.16;;;16.57;100.00
68226;BME280;55045;49.410;11.030;2022-10-16T10:15:33;98303.16;;;16.70;100.00
68226;BME280;55045;49.410;11.030;2022-10-16T10:18:37;98309.56;;;17.03;100.00
68226;BME280;55045;49.410;11.030;2022-10-16T10:21:41;98311.78;;;17.09;100.00
68226;BME280;55045;49.410;11.030;2022-10-16T10:24:46;98299.78;;;17.17;100.00
68226;BME280;55045;49.410;11.030;2022-10-16T10:31:26;98310.75;;;16.98;100.00
68226;BME280;55045;49.410;11.030;2022-10-16T10:34:56;98313.16;;;17.02;100.00
68226;BME280;55045;49.410;11.030;2022-10-16T10:38:17;98320.41;;;17.22;100.00
68226;BME280;55045;49.410;11.030;2022-10-16T10:41:59;98318.75;;;17.45;100.00
68226;BME280;55045;49.410;11.030;2022-10-16T10:45:17;98316.09;;;17.58;100.00
68226;BME280;55045;49.410;11.030;2022-10-16T10:48:38;98311.56;;;17.60;100.00
68226;BME280;55045;49.410;11.030;2022-10-16T10:51:53;98317.00;;;17.69;100.00
68226;BME280;55045;49.410;11.030;2022-10-16T10:55:10;98316.69;;;17.96;100.00
68226;BME280;55045;49.410;11.030;2022-10-16T10:58:31;98309.72;;;17.73;100.00
68226;BME280;55045;49.410;11.030;2022-10-16T11:01:41;98308.88;;;17.48;100.00
68226;BME280;55045;49.410;11.030;2022-10-16T11:08:27;98317.41;;;17.63;100.00
68226;BME280;55045;49.410;11.030;2022-10-16T11:11:38;98308.06;;;17.72;100.00
68226;BME280;55045;49.410;11.030;2022-10-16T11:14:47;98307.38;;;17.81;100.00
68226;BME280;55045;49.410;11.030;2022-10-16T11:17:55;98312.75;;;17.91;100.00
68226;BME280;55045;49.410;11.030;2022-10-16T11:21:04;98312.19;;;17.98;100.00
68226;BME280;55045;49.410;11.030;2022-10-16T11:24:16;98296.16;;;17.79;100.00
68226;BME280;55045;49.410;11.030;2022-10-16T11:27:27;98325.38;;;17.85;100.00
68226;BME280;55045;49.410;11.030;2022-10-16T11:30:44;98308.28;;;18.15;100.00
68226;BME280;55045;49.410;11.030;2022-10-16T11:33:54;98316.38;;;18.01;100.00
68226;BME280;55045;49.410;11.030;2022-10-16T11:37:05;98307.34;;;18.38;100.00
68226;BME280;55045;49.410;11.030;2022-10-16T11:40:20;98301.47;;;18.12;100.00
68226;BME280;55045;49.410;11.030;2022-10-16T11:43:29;98320.59;;;18.37;100.00
68226;BME280;55045;49.410;11.030;2022-10-16T11:46:37;98305.38;;;18.64;100.00
68226;BME280;55045;49.410;11.030;2022-10-16T11:50:05;98282.28;;;18.57;100.00
68226;BME280;55045;49.410;11.030;2022-10-16T11:53:16;98311.13;;;18.81;100.00
68226;BME280;55045;49.410;11.030;2022-10-16T11:56:24;98299.50;;;18.83;100.00
68226;BME280;55045;49.410;11.030;2022-10-16T11:59:33;98311.75;;;19.16;100.00
68226;BME280;55045;49.410;11.030;2022-10-16T12:02:48;98281.34;;;19.03;100.00
68226;BME280;55045;49.410;11.030;2022-10-16T12:06:19;98305.56;;;19.06;100.00
68226;BME280;55045;49.410;11.030;2022-10-16T12:09:28;98304.03;;;19.47;100.00
68226;BME280;55045;49.410;11.030;2022-10-16T12:12:38;98310.13;;;18.93;100.00
68226;BME280;55045;49.410;11.030;2022-10-16T12:15:43;98296.88;;;19.38;100.00
68226;BME280;55045;49.410;11.030;2022-10-16T12:19:13;98236.81;;;19.22;100.00
68226;BME280;55045;49.410;11.030;2022-10-16T12:22:19;98300.84;;;19.32;100.00
68226;BME280;55045;49.410;11.030;2022-10-16T12:25:25;98297.53;;;19.51;100.00
68226;BME280;55045;49.410;11.030;2022-10-16T12:28:31;98296.47;;;19.53;100.00
68226;BME280;55045;49.410;11.030;2022-10-16T12:31:43;98259.09;;;19.39;100.00
68226;BME280;55045;49.410;11.030;2022-10-16T12:34:59;98287.28;;;19.05;100.00
68226;BME280;55045;49.410;11.030;2022-10-16T12:38:06;98289.25;;;19.35;100.00
68226;BME280;55045;49.410;11.030;2022-10-16T12:41:10;98291.78;;;19.25;100.00
68226;BME280;55045;49.410;11.030;2022-10-16T12:44:23;98294.03;;;19.29;100.00
68226;BME280;55045;49.410;11.030;2022-10-16T12:47:46;98284.66;;;19.80;100.00
68226;BME280;55045;49.410;11.030;2022-10-16T12:50:50;98289.38;;;19.33;100.00
68226;BME280;55045;49.410;11.030;2022-10-16T12:54:00;98292.59;;;19.37;100.00
68226;BME280;55045;49.410;11.030;2022-10-16T12:57:26;98280.69;;;19.85;100.00
68226;BME280;55045;49.410;11.030;2022-10-16T13:00:44;98270.78;;;19.57;100.00
68226;BME280;55045;49.410;11.030;2022-10-16T13:04:03;98280.88;;;19.94;100.00
68226;BME280;55045;49.410;11.030;2022-10-16T13:07:29;98286.91;;;19.84;100.00
68226;BME280;55045;49.410;11.030;2022-10-16T13:10:39;98292.31;;;20.04;100.00
68226;BME280;55045;49.410;11.030;2022-10-16T13:14:07;98298.28;;;19.85;100.00
68226;BME280;55045;49.410;11.030;2022-10-16T13:17:19;98293.22;;;20.14;100.00
68226;BME280;55045;49.410;11.030;2022-10-16T13:20:33;98292.31;;;20.04;100.00
68226;BME280;55045;49.410;11.030;2022-10-16T13:23:47;98292.28;;;19.51;100.00
68226;BME280;55045;49.410;11.030;2022-10-16T13:26:56;98294.72;;;19.43;100.00
68226;BME280;55045;49.410;11.030;2022-10-16T13:30:11;98267.88;;;19.28;100.00
68226;BME280;55045;49.410;11.030;2022-10-16T13:33:16;98297.09;;;19.46;100.00
68226;BME280;55045;49.410;11.030;2022-10-16T13:36:24;98292.41;;;19.49;100.00
68226;BME280;55045;49.410;11.030;2022-10-16T13:39:29;98288.66;;;19.95;100.00
68226;BME280;55045;49.410;11.030;2022-10-16T13:42:33;98306.69;;;20.00;100.00
68226;BME280;55045;49.410;11.030;2022-10-16T13:45:36;98305.06;;;19.88;100.00
68226;BME280;55045;49.410;11.030;2022-10-16T13:48:39;98315.19;;;20.03;100.00
68226;BME280;55045;49.410;11.030;2022-10-16T13:51:56;98315.81;;;20.17;100.00
68226;BME280;55045;49.410;11.030;2022-10-16T13:54:59;98316.50;;;20.19;100.00
68226;BME280;55045;49.410;11.030;2022-10-16T13:58:08;98321.50;;;20.01;100.00
68226;BME280;55045;49.410;11.030;2022-10-16T14:01:17;98315.09;;;20.14;100.00
68226;BME280;55045;49.410;11.030;2022-10-16T14:04:21;98310.06;;;20.11;100.00
68226;BME280;55045;49.410;11.030;2022-10-16T14:07:27;98313.03;;;20.18;100.00
68226;BME280;55045;49.410;11.030;2022-10-16T14:10:32;98314.13;;;19.95;100.00
68226;BME280;55045;49.410;11.030;2022-10-16T14:13:38;98263.28;;;19.73;100.00
68226;BME280;55045;49.410;11.030;2022-10-16T14:16:43;98317.22;;;20.00;100.00
68226;BME280;55045;49.410;11.030;2022-10-16T14:19:47;98334.97;;;19.66;100.00
68226;BME280;55045;49.410;11.030;2022-10-16T14:23:02;98327.75;;;20.00;100.00
68226;BME280;55045;49.410;11.030;2022-10-16T14:26:17;98312.81;;;20.52;100.00
68226;BME280;55045;49.410;11.030;2022-10-16T14:29:21;98320.34;;;19.73;100.00
68226;BME280;55045;49.410;11.030;2022-10-16T14:32:24;98322.72;;;19.33;100.00
68226;BME280;55045;49.410;11.030;2022-10-16T14:35:31;98323.00;;;19.62;100.00
68226;BME280;55045;49.410;11.030;2022-10-16T14:38:39;98322.38;;;19.69;100.00
68226;BME280;55045;49.410;11.030;2022-10-16T14:41:45;98322.78;;;19.53;100.00
68226;BME280;55045;49.410;11.030;2022-10-16T14:44:50;98323.88;;;19.62;100.00
68226;BME280;55045;49.410;11.030;2022-10-16T14:47:57;98331.59;;;19.32;100.00
68226;BME280;55045;49.410;11.030;2022-10-16T14:51:00;98333.28;;;19.10;100.00
68226;BME280;55045;49.410;11.030;2022-10-16T14:54:05;98330.78;;;19.63;100.00
68226;BME280;55045;49.410;11.030;2022-10-16T14:57:16;98334.41;;;19.40;100.00
68226;BME280;55045;49.410;11.030;2022-10-16T15:00:23;98332.25;;;19.56;100.00
68226;BME280;55045;49.410;11.030;2022-10-16T15:03:27;98336.16;;;19.07;100.00
68226;BME280;55045;49.410;11.030;2022-10-16T15:06:31;98332.50;;;19.42;100.00
68226;BME280;55045;49.410;11.030;2022-10-16T15:09:36;98332.09;;;19.14;100.00
68226;BME280;55045;49.410;11.030;2022-10-16T15:12:40;98336.28;;;19.06;100.00
68226;BME280;55045;49.410;11.030;2022-10-16T15:15:45;98340.47;;;18.97;100.00
68226;BME280;55045;49.410;11.030;2022-10-16T15:18:48;98351.56;;;18.67;100.00
68226;BME280;55045;49.410;11.030;2022-10-16T15:21:52;98348.13;;;18.66;100.00
68226;BME280;55045;49.410;11.030;2022-10-16T15:24:57;98341.81;;;18.91;100.00
68226;BME280;55045;49.410;11.030;2022-10-16T15:28:01;98355.34;;;18.40;100.00
68226;BME280;55045;49.410;11.030;2022-10-16T15:34:27;98392.38;;;18.02;100.00
68226;BME280;55045;49.410;11.030;2022-10-16T15:37:30;98399.97;;;17.94;100.00
68226;BME280;55045;49.410;11.030;2022-10-16T15:40:34;98415.59;;;17.72;100.00
68226;BME280;55045;49.410;11.030;2022-10-16T15:43:37;98410.56;;;17.93;100.00
68226;BME280;55045;49.410;11.030;2022-10-16T15:46:42;98390.38;;;18.17;100.00
68226;BME280;55045;49.410;11.030;2022-10-16T15:49:49;98404.75;;;17.76;100.00
68226;BME280;55045;49.410;11.030;2022-10-16T15:52:54;98399.72;;;17.97;100.00
68226;BME280;55045;49.410;11.030;2022-10-16T15:55:58;98408.44;;;17.74;100.00
68226;BME280;55045;49.410;11.030;2022-10-16T15:59:04;98410.97;;;17.63;100.00
68226;BME280;55045;49.410;11.030;2022-10-16T16:02:09;98421.13;;;17.43;100.00
68226;BME280;55045;49.410;11.030;2022-10-16T16:05:13;98424.22;;;17.61;100.00
68226;BME280;55045;49.410;11.030;2022-10-16T16:08:17;98417.66;;;17.67;100.00
68226;BME280;55045;49.410;11.030;2022-10-16T16:11:20;98438.38;;;17.22;100.00
68226;BME280;55045;49.410;11.030;2022-10-16T16:14:24;98404.97;;;17.49;100.00
68226;BME280;55045;49.410;11.030;2022-10-16T16:17:30;98418.25;;;17.46;100.00
68226;BME280;55045;49.410;11.030;2022-10-16T16:20:34;98428.69;;;17.35;100.00
68226;BME280;55045;49.410;11.030;2022-10-16T16:23:38;98449.28;;;17.28;100.00
68226;BME280;55045;49.410;11.030;2022-10-16T16:26:41;98445.09;;;17.13;100.00
68226;BME280;55045;49.410;11.030;2022-10-16T16:29:45;98419.31;;;16.94;100.00
68226;BME280;55045;49.410;11.030;2022-10-16T16:32:49;98440.25;;;17.20;100.00
68226;BME280;55045;49.410;11.030;2022-10-16T16:35:57;98464.63;;;16.96;100.00
68226;BME280;55045;49.410;11.030;2022-10-16T16:39:02;98462.72;;;16.98;100.00